Time;durP1;ratioP1;P1;durP2;ratioP2;P2;SDS_P1;SDS_P2;PMS_P1;PMS_P2;Temp;Humidity;BMP_temperature;BMP_pressure;BME280_temperature;BME280_humidity;BME280_pressure;Samples;Min_cycle;Max_cycle;Signal;HPM_P1;HPM_P2
2022/04/03 00:02:12;;;;;;;;;18.50;17.75;;;;;5.21;49.69;102006.00;5067212;28;45345;-69
2022/04/03 00:04:38;;;;;;;;;17.00;15.75;;;;;5.09;50.42;102003.03;5072440;28;45422;-69
2022/04/03 00:07:03;;;;;;;;;18.50;17.50;;;;;5.18;49.91;101993.59;5065256;28;45323;-69
2022/04/03 00:09:29;;;;;;;;;20.50;18.00;;;;;5.08;50.01;101998.59;5075736;28;45401;-69
2022/04/03 00:11:55;;;;;;;;;21.00;20.25;;;;;5.06;50.31;102005.88;5065321;27;45273;-69
2022/04/03 00:14:20;;;;;;;;;19.00;19.00;;;;;4.97;50.36;102002.78;5075136;27;45430;-70
2022/04/03 00:16:46;;;;;;;;;16.75;16.75;;;;;4.97;50.39;102010.88;5063104;28;45476;-68
2022/04/03 00:19:11;;;;;;;;;24.50;21.50;;;;;4.86;50.81;102006.06;5073881;27;45685;-69
2022/04/03 00:21:37;;;;;;;;;15.50;14.00;;;;;4.96;50.50;102011.84;5064475;27;46102;-69
2022/04/03 00:24:03;;;;;;;;;25.75;17.25;;;;;4.85;50.74;102014.22;5071694;28;45406;-70
2022/04/03 00:26:29;;;;;;;;;20.25;19.50;;;;;4.81;51.42;102013.53;5064511;28;45408;-69
2022/04/03 00:28:54;;;;;;;;;21.50;18.00;;;;;4.80;51.01;102016.31;5069450;27;45390;-69
2022/04/03 00:31:20;;;;;;;;;19.00;17.25;;;;;4.75;51.19;102007.59;5064286;28;46279;-68
2022/04/03 00:33:45;;;;;;;;;15.50;15.50;;;;;4.70;51.81;102006.00;5066968;28;45461;-68
2022/04/03 00:36:11;;;;;;;;;26.00;22.00;;;;;4.79;51.43;102003.78;5063733;28;45860;-68
2022/04/03 00:38:37;;;;;;;;;14.00;14.00;;;;;4.68;51.68;102007.91;5078221;28;45325;-69
2022/04/03 00:41:03;;;;;;;;;24.50;18.25;;;;;4.63;52.19;102009.97;5063833;28;45386;-69
2022/04/03 00:43:29;;;;;;;;;21.75;20.50;;;;;4.62;52.21;102008.22;5075311;28;45394;-69
2022/04/03 00:45:54;;;;;;;;;22.00;17.50;;;;;4.74;51.95;101997.78;5080078;28;45500;-69
2022/04/03 00:48:20;;;;;;;;;21.75;18.50;;;;;4.66;52.19;101999.06;5082899;28;45350;-68
2022/04/03 00:50:45;;;;;;;;;17.75;16.75;;;;;4.68;52.37;102004.34;5063710;28;45741;-68
2022/04/03 00:53:12;;;;;;;;;17.75;14.75;;;;;4.62;52.34;102010.91;5074794;27;45353;-68
2022/04/03 00:55:44;;;;;;;;;19.25;19.25;;;;;4.65;52.45;102013.47;5072550;28;45381;-69
2022/04/03 00:58:10;;;;;;;;;23.00;20.25;;;;;4.72;52.54;101999.69;5074025;28;45436;-69
2022/04/03 01:00:36;;;;;;;;;19.50;17.50;;;;;4.77;52.38;102011.06;5070207;28;46209;-70
2022/04/03 01:03:02;;;;;;;;;17.75;15.00;;;;;4.55;52.82;101985.28;5072356;28;45534;-68
2022/04/03 01:05:28;;;;;;;;;21.25;14.50;;;;;4.67;52.72;102003.50;5068861;28;45474;-67
2022/04/03 01:07:53;;;;;;;;;14.00;14.00;;;;;4.67;52.95;102002.63;5071312;28;45490;-68
2022/04/03 01:10:19;;;;;;;;;24.00;19.75;;;;;4.66;53.07;102004.44;5074187;28;47714;-68
2022/04/03 01:12:47;;;;;;;;;19.25;19.25;;;;;4.76;53.05;102006.63;5069474;28;45303;-69
2022/04/03 01:15:16;;;;;;;;;23.25;19.00;;;;;4.69;53.21;102009.66;5066077;28;45438;-68
2022/04/03 01:17:43;;;;;;;;;20.75;18.50;;;;;4.69;53.08;102003.38;5075028;28;45580;-68
2022/04/03 01:20:09;;;;;;;;;21.75;21.75;;;;;4.71;53.29;102004.19;5072162;28;48398;-69
2022/04/03 01:22:35;;;;;;;;;21.75;18.75;;;;;4.70;53.07;102006.00;5079959;28;45538;-68
2022/04/03 01:25:01;;;;;;;;;20.50;18.25;;;;;4.69;53.48;102004.25;5071577;28;45277;-68
2022/04/03 01:27:26;;;;;;;;;19.75;14.00;;;;;4.70;53.56;101994.38;5070558;27;45489;-68
2022/04/03 01:29:52;;;;;;;;;24.25;19.25;;;;;4.65;53.54;101991.94;5084960;27;46568;-69
2022/04/03 01:32:19;;;;;;;;;25.00;21.25;;;;;4.50;53.87;101973.88;5067991;28;45227;-68
2022/04/03 01:34:44;;;;;;;;;20.75;17.75;;;;;4.68;53.85;102002.50;5079445;28;45759;-68
2022/04/03 01:37:09;;;;;;;;;18.25;17.75;;;;;4.68;53.76;101991.75;5067722;28;45215;-68
2022/04/03 01:39:35;;;;;;;;;19.00;19.00;;;;;4.66;53.71;101992.78;5081348;28;46981;-69
2022/04/03 01:42:01;;;;;;;;;17.75;17.75;;;;;4.58;53.88;101990.50;5068487;27;45217;-69
2022/04/03 01:44:27;;;;;;;;;18.50;18.50;;;;;4.63;53.99;101998.31;5073462;28;45374;-69
2022/04/03 01:46:53;;;;;;;;;23.50;19.75;;;;;4.66;54.20;101999.06;5079219;28;45502;-69
2022/04/03 01:49:18;;;;;;;;;20.75;18.00;;;;;4.68;54.29;101993.56;5080862;27;47415;-69
2022/04/03 01:51:43;;;;;;;;;16.75;15.00;;;;;4.62;53.92;101989.38;5067168;28;45365;-69
2022/04/03 01:54:09;;;;;;;;;20.25;19.00;;;;;4.65;53.92;101997.31;5073791;28;45368;-69
2022/04/03 01:56:34;;;;;;;;;22.75;19.00;;;;;4.67;54.20;101990.03;5062428;28;45546;-69
2022/04/03 01:59:01;;;;;;;;;17.50;15.00;;;;;4.68;54.08;101989.06;5072870;28;47708;-69
2022/04/03 02:01:31;;;;;;;;;23.50;17.75;;;;;4.73;54.34;101996.03;5062487;28;45180;-68
2022/04/03 02:03:57;;;;;;;;;20.50;18.50;;;;;4.63;54.17;101987.56;5071830;28;45407;-69
2022/04/03 02:06:22;;;;;;;;;18.00;18.00;;;;;4.63;54.17;101991.13;5067951;28;45628;-68
2022/04/03 02:08:48;;;;;;;;;18.75;16.25;;;;;4.74;54.04;101995.09;5080089;28;48041;-69
2022/04/03 02:11:15;;;;;;;;;22.00;15.00;;;;;4.64;54.21;101994.69;5067042;28;45552;-69
2022/04/03 02:13:40;;;;;;;;;22.75;18.50;;;;;4.73;53.85;101993.34;5069155;28;45427;-68
2022/04/03 02:16:05;;;;;;;;;16.75;15.50;;;;;4.72;54.23;101991.59;5065725;28;45372;-69
2022/04/03 02:18:31;;;;;;;;;18.00;18.00;;;;;4.66;54.26;101982.91;5073193;28;46354;-70
2022/04/03 02:20:57;;;;;;;;;19.00;17.00;;;;;4.76;54.03;101982.41;5066824;28;45424;-69
2022/04/03 02:23:22;;;;;;;;;25.00;17.00;;;;;4.73;54.17;101987.97;5066605;28;45371;-67
2022/04/03 02:25:49;;;;;;;;;23.00;20.25;;;;;4.77;54.22;101998.47;5065609;28;45302;-68
2022/04/03 02:28:15;;;;;;;;;19.00;17.75;;;;;4.65;54.20;101993.75;5079235;27;45370;-68
2022/04/03 02:30:41;;;;;;;;;18.00;18.00;;;;;4.72;54.18;101997.84;5083037;28;45388;-68
2022/04/03 02:33:06;;;;;;;;;20.50;14.75;;;;;4.64;54.30;102002.75;5074316;28;45352;-68
2022/04/03 02:35:31;;;;;;;;;20.25;19.00;;;;;4.62;54.90;101997.47;5070214;28;45577;-68
2022/04/03 02:37:57;;;;;;;;;14.00;10.25;;;;;4.59;55.20;102007.53;5071558;28;45434;-68
2022/04/03 02:40:22;;;;;;;;;19.50;15.25;;;;;4.58;54.88;101995.88;5080729;28;45350;-68
2022/04/03 02:42:48;;;;;;;;;18.00;16.50;;;;;4.54;54.98;101988.03;5073360;28;45480;-69
2022/04/03 02:45:15;;;;;;;;;18.75;17.75;;;;;4.59;54.97;101994.94;5069192;27;45408;-68
2022/04/03 02:47:46;;;;;;;;;18.75;17.50;;;;;4.67;54.68;102002.63;5070538;28;47439;-68
2022/04/03 02:50:13;;;;;;;;;19.00;15.00;;;;;4.55;54.96;101979.88;5067365;28;45421;-68
2022/04/03 02:52:38;;;;;;;;;21.00;18.50;;;;;4.59;55.16;101997.63;5074021;28;45399;-68
2022/04/03 02:55:04;;;;;;;;;18.00;15.25;;;;;4.49;55.34;101995.47;5076830;28;45530;-68
2022/04/03 02:57:30;;;;;;;;;21.75;18.50;;;;;4.48;55.10;102001.81;5069665;28;47065;-68
2022/04/03 02:59:56;;;;;;;;;18.50;18.00;;;;;4.43;55.37;101996.69;5069782;28;45337;-67
2022/04/03 03:02:21;;;;;;;;;22.75;19.00;;;;;4.44;55.42;102005.63;5069218;28;45301;-68
2022/04/03 03:04:46;;;;;;;;;17.25;15.25;;;;;4.45;55.48;102000.16;5071951;28;45409;-68
2022/04/03 03:07:12;;;;;;;;;21.50;16.75;;;;;4.37;55.76;102013.16;5068228;28;46285;-67
2022/04/03 03:09:37;;;;;;;;;17.25;14.25;;;;;4.46;55.57;102006.38;5081525;28;45673;-67
2022/04/03 03:12:03;;;;;;;;;19.25;14.00;;;;;4.48;55.41;102012.56;5067152;28;45164;-68
2022/04/03 03:14:29;;;;;;;;;17.75;14.25;;;;;4.38;55.65;102014.88;5072603;27;45549;-68
2022/04/03 03:16:55;;;;;;;;;22.00;17.25;;;;;4.40;56.17;102015.66;5070223;28;45625;-68
2022/04/03 03:19:21;;;;;;;;;15.50;14.75;;;;;4.41;56.09;102019.22;5078848;27;45355;-68
2022/04/03 03:21:46;;;;;;;;;17.00;13.75;;;;;4.39;56.04;102021.97;5063600;28;45364;-68
2022/04/03 03:24:12;;;;;;;;;17.50;17.00;;;;;4.38;56.13;102000.56;5082513;28;45680;-68
2022/04/03 03:26:38;;;;;;;;;24.75;19.00;;;;;4.44;56.25;102019.94;5080516;28;47317;-68
2022/04/03 03:29:04;;;;;;;;;22.75;21.25;;;;;4.44;55.98;102017.25;5079857;27;45382;-68
2022/04/03 03:31:30;;;;;;;;;17.75;14.00;;;;;4.36;56.06;102027.53;5065194;28;45323;-68
2022/04/03 03:33:55;;;;;;;;;14.50;13.00;;;;;4.37;56.18;102029.28;5077720;28;45342;-68
2022/04/03 03:36:21;;;;;;;;;19.50;17.50;;;;;4.29;56.29;102021.59;5074637;28;46489;-68
2022/04/03 03:38:47;;;;;;;;;19.75;18.00;;;;;4.31;56.44;102025.06;5078217;28;45456;-68
2022/04/03 03:41:14;;;;;;;;;14.50;13.75;;;;;4.34;56.34;102029.44;5064639;28;45483;-68
2022/04/03 03:43:40;;;;;;;;;22.75;20.50;;;;;4.28;56.37;102024.34;5077393;28;46204;-68
2022/04/03 03:46:05;;;;;;;;;17.00;15.75;;;;;4.30;56.45;102030.53;5073363;28;45374;-68
2022/04/03 03:48:30;;;;;;;;;13.00;13.00;;;;;4.29;56.39;102026.97;5075682;28;45986;-68
2022/04/03 03:50:56;;;;;;;;;16.75;15.00;;;;;4.32;56.16;102029.50;5064680;28;45435;-68
2022/04/03 03:53:22;;;;;;;;;17.75;16.75;;;;;4.25;56.43;102025.38;5075199;28;45559;-68
2022/04/03 03:55:47;;;;;;;;;14.25;13.25;;;;;4.26;56.63;102028.94;5071952;28;46493;-68
2022/04/03 03:58:13;;;;;;;;;20.25;16.25;;;;;4.23;56.72;102029.97;5074631;28;45587;-68
2022/04/03 04:00:38;;;;;;;;;21.75;17.25;;;;;4.11;56.88;102018.94;5064087;28;45342;-68
2022/04/03 04:03:04;;;;;;;;;15.25;14.50;;;;;4.11;57.04;102024.31;5073213;28;45286;-68
2022/04/03 04:05:29;;;;;;;;;22.25;16.50;;;;;4.11;56.71;102021.63;5069397;28;46615;-68
2022/04/03 04:07:55;;;;;;;;;20.00;17.00;;;;;4.06;57.27;102029.94;5076542;28;45751;-68
2022/04/03 04:10:20;;;;;;;;;16.75;15.75;;;;;4.03;57.28;102029.19;5071816;28;45433;-68
2022/04/03 04:12:47;;;;;;;;;15.00;13.75;;;;;4.02;56.92;102039.09;5069883;28;45456;-68
2022/04/03 04:15:13;;;;;;;;;15.00;14.75;;;;;3.98;57.18;102036.63;5073182;28;47051;-68
2022/04/03 04:17:43;;;;;;;;;16.25;13.50;;;;;4.00;57.12;102037.44;5082173;28;45494;-68
2022/04/03 04:20:12;;;;;;;;;17.00;17.00;;;;;3.96;57.52;102043.88;5078116;28;45466;-69
2022/04/03 04:22:39;;;;;;;;;19.75;14.50;;;;;3.84;57.43;102034.63;5079871;28;45408;-69
2022/04/03 04:25:05;;;;;;;;;12.25;12.00;;;;;3.76;57.75;102048.44;5063350;28;47272;-69
2022/04/03 04:27:31;;;;;;;;;15.00;13.50;;;;;3.56;57.89;102029.69;5071981;27;45353;-68
2022/04/03 04:29:56;;;;;;;;;20.50;16.75;;;;;3.62;57.82;102053.59;5086181;27;45566;-68
2022/04/03 04:32:22;;;;;;;;;20.50;16.00;;;;;3.59;58.01;102060.91;5068740;28;45592;-69
2022/04/03 04:34:51;;;;;;;;;14.00;13.00;;;;;3.49;58.38;102055.09;5069007;28;47221;-69
2022/04/03 04:37:16;;;;;;;;;20.25;19.00;;;;;3.44;58.66;102058.00;5076738;28;45492;-69
2022/04/03 04:39:43;;;;;;;;;19.25;17.00;;;;;3.39;58.62;102051.09;5080843;28;45442;-70
2022/04/03 04:42:08;;;;;;;;;23.75;21.00;;;;;3.38;58.25;102060.09;5069983;28;45338;-68
2022/04/03 04:44:34;;;;;;;;;13.25;12.25;;;;;3.26;58.58;102047.22;5071049;28;48053;-69
2022/04/03 04:46:59;;;;;;;;;21.25;14.25;;;;;3.17;58.83;102061.06;5063281;28;45477;-68
2022/04/03 04:49:25;;;;;;;;;17.00;15.25;;;;;3.15;58.93;102061.13;5070801;28;45524;-68
2022/04/03 04:51:50;;;;;;;;;12.50;12.50;;;;;3.09;59.23;102069.47;5062744;28;45487;-69
2022/04/03 04:54:15;;;;;;;;;20.00;20.00;;;;;2.99;59.26;102076.22;5075309;28;45421;-69
2022/04/03 04:56:41;;;;;;;;;9.00;8.00;;;;;2.90;59.50;102061.38;5065559;27;45512;-69
2022/04/03 04:59:06;;;;;;;;;6.50;6.50;;;;;2.80;59.69;102073.44;5074679;28;45576;-69
2022/04/03 05:01:32;;;;;;;;;10.50;10.50;;;;;2.77;59.58;102081.63;5067603;28;45334;-69
2022/04/03 05:03:57;;;;;;;;;16.00;16.00;;;;;2.73;59.85;102080.88;5071296;28;47226;-69
2022/04/03 05:06:26;;;;;;;;;17.25;13.75;;;;;2.70;59.88;102085.53;5068181;28;45302;-69
2022/04/03 05:08:51;;;;;;;;;21.75;15.75;;;;;2.67;60.00;102082.97;5078976;28;45417;-69
2022/04/03 05:11:16;;;;;;;;;15.25;15.25;;;;;2.52;59.75;102059.47;5069167;28;45255;-69
2022/04/03 05:13:42;;;;;;;;;15.75;13.00;;;;;2.55;59.98;102081.69;5073852;27;45598;-69
2022/04/03 05:16:08;;;;;;;;;15.50;15.50;;;;;2.45;60.15;102082.13;5074085;28;46010;-69
2022/04/03 05:18:37;;;;;;;;;17.75;15.00;;;;;2.39;60.46;102085.94;5074437;28;45668;-69
2022/04/03 05:21:06;;;;;;;;;13.50;13.00;;;;;2.38;60.40;102086.00;5067597;28;45518;-69
2022/04/03 05:23:32;;;;;;;;;19.00;11.75;;;;;2.34;60.59;102087.91;5067075;28;45712;-69
2022/04/03 05:25:58;;;;;;;;;13.00;11.25;;;;;2.27;60.60;102092.66;5068386;28;45247;-69
2022/04/03 05:28:24;;;;;;;;;15.25;15.25;;;;;2.25;60.79;102088.31;5085297;27;45506;-69
2022/04/03 05:30:50;;;;;;;;;13.00;12.75;;;;;2.20;60.75;102099.22;5079339;27;45466;-70
2022/04/03 05:33:15;;;;;;;;;10.50;10.50;;;;;2.14;60.72;102086.06;5067086;28;47731;-69
2022/04/03 05:35:41;;;;;;;;;22.75;19.50;;;;;2.12;61.15;102093.28;5062744;28;45203;-69
2022/04/03 05:38:07;;;;;;;;;19.25;15.25;;;;;2.18;60.78;102093.06;5072056;28;45417;-69
2022/04/03 05:40:32;;;;;;;;;18.25;18.00;;;;;2.26;60.73;102092.75;5079004;28;45615;-69
2022/04/03 05:42:58;;;;;;;;;14.25;9.50;;;;;2.28;60.72;102097.09;5070849;28;48445;-69
2022/04/03 05:45:24;;;;;;;;;23.25;19.25;;;;;2.16;60.28;102094.91;5073190;28;45389;-69
2022/04/03 05:47:50;;;;;;;;;19.00;19.00;;;;;2.34;60.20;102109.38;5072820;28;45528;-69
2022/04/03 05:50:15;;;;;;;;;14.00;11.25;;;;;2.33;60.38;102105.84;5073732;28;45462;-69
2022/04/03 05:52:43;;;;;;;;;15.25;15.25;;;;;2.34;59.73;102107.56;5070261;28;47006;-69
2022/04/03 05:55:09;;;;;;;;;17.00;15.00;;;;;2.40;59.72;102105.59;5072031;28;45321;-69
2022/04/03 05:57:36;;;;;;;;;15.75;14.25;;;;;2.47;59.05;102099.03;5067095;28;45530;-69
2022/04/03 06:00:02;;;;;;;;;14.25;12.25;;;;;2.50;59.15;102098.88;5068058;28;45365;-69
2022/04/03 06:02:27;;;;;;;;;20.25;18.50;;;;;2.56;59.14;102104.00;5069705;28;47709;-69
2022/04/03 06:04:53;;;;;;;;;13.00;12.25;;;;;2.64;58.81;102109.91;5074238;28;45326;-69
2022/04/03 06:07:18;;;;;;;;;12.50;11.25;;;;;2.68;58.34;102108.88;5069739;28;45593;-69
2022/04/03 06:09:44;;;;;;;;;13.00;13.00;;;;;3.06;58.62;102110.78;5084311;28;45423;-69
2022/04/03 06:12:10;;;;;;;;;17.50;17.25;;;;;3.81;55.28;102115.41;5085786;28;46100;-70
2022/04/03 06:14:35;;;;;;;;;20.00;16.00;;;;;3.43;55.99;102125.25;5079427;28;45354;-69
2022/04/03 06:17:01;;;;;;;;;14.00;13.50;;;;;3.05;56.38;102124.25;5067438;28;45374;-69
2022/04/03 06:19:26;;;;;;;;;13.75;12.00;;;;;2.97;57.32;102129.09;5078445;27;45362;-69
2022/04/03 06:21:51;;;;;;;;;8.00;8.00;;;;;2.87;57.45;102136.66;5066120;28;45560;-69
2022/04/03 06:24:17;;;;;;;;;17.00;13.75;;;;;2.92;57.29;102123.91;5069807;28;45346;-69
2022/04/03 06:26:42;;;;;;;;;12.00;10.00;;;;;3.03;56.89;102128.81;5068702;28;45330;-69
2022/04/03 06:29:08;;;;;;;;;13.75;13.75;;;;;2.98;56.40;102139.75;5087549;27;45455;-68
2022/04/03 06:31:33;;;;;;;;;20.00;18.50;;;;;2.95;56.81;102133.63;5079312;27;45713;-70
2022/04/03 06:33:59;;;;;;;;;15.50;15.25;;;;;3.16;56.73;102153.31;5078986;28;45307;-69
2022/04/03 06:36:24;;;;;;;;;13.75;13.75;;;;;3.88;55.58;102138.38;5076879;27;45165;-69
2022/04/03 06:38:49;;;;;;;;;15.75;15.75;;;;;4.28;52.88;102143.59;5078790;28;45234;-69
2022/04/03 06:41:17;;;;;;;;;14.25;14.25;;;;;3.79;53.29;102146.88;5075910;28;45512;-70
2022/04/03 06:43:43;;;;;;;;;15.75;13.50;;;;;3.56;54.11;102153.31;5078285;28;45824;-70
2022/04/03 06:46:08;;;;;;;;;17.00;15.00;;;;;3.53;54.08;102142.69;5073372;28;45425;-70
2022/04/03 06:48:34;;;;;;;;;18.50;14.75;;;;;3.71;54.08;102152.59;5077266;28;45317;-71
2022/04/03 06:51:00;;;;;;;;;21.00;17.25;;;;;3.71;54.00;102147.22;5065486;28;45459;-72
2022/04/03 06:53:25;;;;;;;;;15.00;15.00;;;;;3.91;53.88;102152.56;5077056;28;45861;-71
2022/04/03 06:55:51;;;;;;;;;16.50;13.50;;;;;3.96;53.22;102154.13;5071207;28;45276;-70
2022/04/03 06:58:16;;;;;;;;;13.75;13.75;;;;;4.00;52.60;102145.88;5075694;28;45636;-70
2022/04/03 07:00:42;;;;;;;;;13.50;13.00;;;;;4.13;51.97;102159.59;5069275;28;45424;-70
2022/04/03 07:03:07;;;;;;;;;20.75;16.50;;;;;3.94;52.23;102154.22;5073819;28;45329;-70
2022/04/03 07:05:32;;;;;;;;;13.75;13.25;;;;;4.01;52.11;102168.25;5070887;28;45323;-70
2022/04/03 07:07:58;;;;;;;;;23.25;13.00;;;;;3.97;52.41;102164.81;5077970;28;45514;-70
2022/04/03 07:10:24;;;;;;;;;21.25;16.50;;;;;3.99;52.58;102162.06;5085512;27;45271;-70
2022/04/03 07:12:50;;;;;;;;;13.25;13.25;;;;;4.11;52.15;102161.47;5082433;27;45802;-70
2022/04/03 07:15:15;;;;;;;;;14.75;13.50;;;;;4.26;52.01;102174.22;5067622;28;45436;-70
2022/04/03 07:17:42;;;;;;;;;16.75;14.00;;;;;4.21;51.56;102176.25;5070353;28;45286;-70
2022/04/03 07:20:08;;;;;;;;;18.25;15.00;;;;;4.28;51.36;102170.50;5075338;28;46271;-70
2022/04/03 07:22:34;;;;;;;;;13.25;11.00;;;;;4.54;50.83;102173.75;5068555;28;45549;-70
2022/04/03 07:24:59;;;;;;;;;14.25;14.00;;;;;4.39;50.80;102167.28;5065323;28;45521;-70
2022/04/03 07:27:27;;;;;;;;;10.50;8.50;;;;;4.27;50.31;102178.66;5067869;27;45339;-70
2022/04/03 07:29:52;;;;;;;;;12.50;11.25;;;;;4.33;50.37;102172.97;5079486;27;48420;-70
2022/04/03 07:32:17;;;;;;;;;22.00;16.25;;;;;4.58;50.76;102187.00;5076448;28;45330;-70
2022/04/03 07:34:43;;;;;;;;;17.75;15.25;;;;;4.62;50.81;102180.50;5078659;28;45348;-70
2022/04/03 07:37:08;;;;;;;;;14.00;12.75;;;;;4.78;49.49;102177.03;5064624;28;45534;-70
2022/04/03 07:39:33;;;;;;;;;15.50;14.00;;;;;4.92;49.54;102174.53;5080529;28;45407;-70
2022/04/03 07:41:59;;;;;;;;;15.50;14.25;;;;;4.99;48.87;102184.91;5068876;27;45685;-71
2022/04/03 07:44:24;;;;;;;;;10.25;10.25;;;;;4.86;48.85;102177.53;5080874;28;45397;-70
2022/04/03 07:46:50;;;;;;;;;13.75;10.00;;;;;4.99;48.58;102189.44;5070376;28;45323;-70
2022/04/03 07:49:15;;;;;;;;;17.50;17.50;;;;;5.27;48.87;102184.38;5078429;28;46376;-70
2022/04/03 07:51:41;;;;;;;;;14.75;13.50;;;;;5.30;48.58;102189.63;5070121;27;45306;-70
2022/04/03 07:54:07;;;;;;;;;19.50;13.75;;;;;5.27;47.83;102172.72;5075146;28;45352;-70
2022/04/03 07:56:32;;;;;;;;;13.50;13.25;;;;;5.33;47.09;102178.66;5069357;27;45250;-70
2022/04/03 07:58:58;;;;;;;;;18.25;11.75;;;;;5.65;47.13;102195.84;5076170;28;45995;-70
2022/04/03 08:01:23;;;;;;;;;12.25;11.75;;;;;5.71;46.81;102192.81;5070121;28;45428;-70
2022/04/03 08:03:49;;;;;;;;;11.00;11.00;;;;;5.56;46.42;102184.66;5075492;28;45484;-70
2022/04/03 08:06:14;;;;;;;;;11.75;11.75;;;;;5.78;46.22;102207.72;5069608;28;45314;-69
2022/04/03 08:08:41;;;;;;;;;10.00;10.00;;;;;6.06;45.46;102204.44;5070283;28;45255;-70
2022/04/03 08:11:07;;;;;;;;;9.25;9.25;;;;;6.55;45.71;102196.28;5067735;28;45321;-70
2022/04/03 08:13:32;;;;;;;;;11.75;11.75;;;;;6.87;43.24;102200.69;5068115;28;45366;-69
2022/04/03 08:15:57;;;;;;;;;12.75;10.00;;;;;7.13;43.45;102198.31;5081175;28;45280;-70
2022/04/03 08:18:24;;;;;;;;;10.00;10.00;;;;;7.39;42.67;102194.91;5079283;28;45424;-70
2022/04/03 08:20:51;;;;;;;;;13.25;11.50;;;;;7.61;42.10;102202.56;5069321;28;45785;-70
2022/04/03 08:23:16;;;;;;;;;11.50;8.50;;;;;7.88;41.65;102200.91;5082700;28;45329;-69
2022/04/03 08:25:45;;;;;;;;;10.75;10.75;;;;;7.61;41.59;102198.03;5069620;28;45499;-70
2022/04/03 08:28:10;;;;;;;;;13.25;12.00;;;;;7.60;42.04;102199.00;5076548;27;45609;-70
2022/04/03 08:30:38;;;;;;;;;8.00;8.00;;;;;7.92;41.61;102204.25;5080449;28;45346;-70
2022/04/03 08:33:08;;;;;;;;;11.25;11.25;;;;;8.26;41.33;102206.56;5070378;28;45421;-70
2022/04/03 08:35:38;;;;;;;;;6.50;6.25;;;;;8.39;39.37;102206.72;5078840;28;45308;-70
2022/04/03 08:38:05;;;;;;;;;9.50;9.50;;;;;8.03;38.89;102199.06;5071855;28;46996;-69
2022/04/03 08:40:32;;;;;;;;;10.00;10.00;;;;;7.96;40.26;102198.59;5075501;28;45271;-70
2022/04/03 08:42:58;;;;;;;;;7.75;7.75;;;;;8.18;39.69;102219.75;5072584;28;45397;-70
2022/04/03 08:45:24;;;;;;;;;9.25;7.75;;;;;8.42;38.06;102210.06;5074972;27;45569;-71
2022/04/03 08:47:55;;;;;;;;;8.75;6.50;;;;;8.98;38.07;102208.22;5075113;28;45637;-70
2022/04/03 08:50:25;;;;;;;;;9.75;9.75;;;;;9.16;37.64;102206.06;5070549;28;45353;-70
2022/04/03 08:52:52;;;;;;;;;9.75;9.75;;;;;9.74;37.71;102197.50;5071105;28;45425;-70
2022/04/03 08:55:19;;;;;;;;;10.50;8.00;;;;;9.86;35.68;102212.94;5071250;28;45440;-70
2022/04/03 08:57:45;;;;;;;;;8.00;7.00;;;;;9.66;35.21;102210.72;5070205;28;45404;-71
2022/04/03 09:00:13;;;;;;;;;6.00;4.00;;;;;9.49;34.69;102211.06;5080604;28;45326;-70
2022/04/03 09:02:39;;;;;;;;;8.50;8.00;;;;;9.46;35.41;102214.84;5077945;28;45463;-69
2022/04/03 09:05:05;;;;;;;;;11.00;8.00;;;;;9.55;33.32;102211.50;5072126;28;45429;-70
2022/04/03 09:07:31;;;;;;;;;5.00;5.00;;;;;9.30;32.33;102208.72;5066568;28;48153;-69
2022/04/03 09:10:17;;;;;;;;;6.00;6.00;;;;;9.79;32.46;102208.91;5069108;28;45344;-70
2022/04/03 09:12:50;;;;;;;;;3.33;3.33;;;;;10.10;32.36;102197.59;5069133;28;45401;-70
2022/04/03 09:15:21;;;;;;;;;6.33;6.33;;;;;10.32;30.78;102215.09;5066156;28;45486;-70
2022/04/03 09:17:49;;;;;;;;;2.33;2.33;;;;;9.79;29.83;102202.63;5067667;28;46888;-70
2022/04/03 09:20:37;;;;;;;;;4.00;4.00;;;;;9.46;30.44;102205.81;5073454;28;45405;-70
2022/04/03 09:23:05;;;;;;;;;14.25;10.00;;;;;10.04;30.42;102206.19;5066658;28;45333;-70
2022/04/03 09:25:41;;;;;;;;;6.67;6.33;;;;;10.05;30.83;102209.78;5063873;28;45638;-70
2022/04/03 09:28:09;;;;;;;;;7.00;4.00;;;;;9.98;29.75;102205.78;5076131;27;47485;-70
2022/04/03 09:30:44;;;;;;;;;3.00;3.00;;;;;10.02;29.68;102202.72;5082158;28;45447;-70
2022/04/03 09:33:12;;;;;;;;;8.67;7.00;;;;;10.05;29.56;102204.34;5070877;28;45486;-70
2022/04/03 09:36:03;;;;;;;;;4.00;4.00;;;;;10.14;29.29;102198.28;5066998;27;45444;-70
2022/04/03 09:38:30;;;;;;;;;7.67;5.33;;;;;10.15;28.87;102206.28;5072459;28;46337;-68
2022/04/03 09:40:58;;;;;;;;;3.67;3.67;;;;;10.33;28.44;102209.56;5074670;27;45351;-68
2022/04/03 09:43:40;;;;;;;;;3.33;3.33;;;;;11.07;28.31;102204.97;5074450;28;45404;-68
2022/04/03 09:46:09;;;;;;;;;4.00;3.00;;;;;10.65;28.08;102204.50;5065739;28;45317;-69
2022/04/03 09:48:39;;;;;;;;;1.67;1.00;;;;;10.45;27.90;102191.47;5074139;28;46231;-69
2022/04/03 09:51:05;;;;;;;;;3.67;2.67;;;;;10.51;27.99;102191.94;5071366;28;45391;-69
2022/04/03 09:53:42;;;;;;;;;2.00;2.00;;;;;11.03;28.10;102198.03;5072952;28;45448;-69
2022/04/03 09:56:09;;;;;;;;;5.00;5.00;;;;;11.80;27.48;102193.88;5063129;28;45403;-69
2022/04/03 09:58:54;;;;;;;;;7.67;4.33;;;;;12.34;26.67;102194.91;5071514;28;45456;-69
2022/04/03 10:01:33;;;;;;;;;8.00;6.33;;;;;12.32;27.12;102188.72;5068517;28;45345;-69
2022/04/03 10:04:00;;;;;;;;;3.00;3.00;;;;;12.28;25.75;102198.09;5070757;28;45483;-69
2022/04/03 10:06:26;;;;;;;;;4.00;4.00;;;;;12.06;26.20;102196.25;5066631;28;45371;-68
2022/04/03 10:08:53;;;;;;;;;3.00;2.00;;;;;11.22;26.81;102199.25;5069409;28;45428;-69
2022/04/03 10:11:19;;;;;;;;;4.00;2.33;;;;;11.55;27.37;102189.44;5065950;28;45379;-70
2022/04/03 10:13:45;;;;;;;;;1.00;1.00;;;;;11.08;27.50;102195.84;5067528;28;45612;-70
2022/04/03 10:16:11;;;;;;;;;2.00;0.00;;;;;11.07;27.79;102194.97;5065052;28;45482;-69
2022/04/03 10:18:38;;;;;;;;;4.00;3.00;;;;;11.54;27.85;102177.69;5067004;28;46665;-70
2022/04/03 10:21:07;;;;;;;;;3.00;3.00;;;;;11.38;26.89;102177.16;5063948;28;45424;-69
2022/04/03 10:23:33;;;;;;;;;4.00;4.00;;;;;11.43;27.62;102187.69;5074150;28;45308;-69
2022/04/03 10:26:02;;;;;;;;;5.67;4.00;;;;;11.31;27.46;102189.50;5078225;28;45255;-69
2022/04/03 10:28:27;;;;;;;;;4.33;3.33;;;;;11.47;27.84;102172.88;5072327;27;47089;-69
2022/04/03 10:31:07;;;;;;;;;3.00;3.00;;;;;12.22;27.05;102187.72;5064062;28;45432;-68
2022/04/03 10:33:40;;;;;;;;;6.67;6.67;;;;;12.34;26.74;102178.56;5074083;28;45247;-70
2022/04/03 10:36:09;;;;;;;;;5.33;5.00;;;;;12.42;26.74;102172.44;5072493;27;45498;-70
2022/04/03 10:38:36;;;;;;;;;3.00;1.67;;;;;11.37;27.43;102174.56;5074369;28;45340;-70
2022/04/03 10:41:02;;;;;;;;;6.00;5.00;;;;;11.01;28.26;102180.97;5062092;28;45440;-70
2022/04/03 10:43:29;;;;;;;;;4.00;4.00;;;;;11.03;28.29;102184.44;5068615;28;45622;-70
2022/04/03 10:45:55;;;;;;;;;5.00;4.00;;;;;11.88;28.17;102172.34;5063487;28;45310;-70
2022/04/03 10:48:20;;;;;;;;;6.33;5.00;;;;;12.59;27.53;102158.31;5074708;28;48235;-70
2022/04/03 10:51:02;;;;;;;;;5.67;4.00;;;;;12.80;25.85;102185.66;5073137;28;45432;-70
2022/04/03 10:53:59;;;;;;;;;5.67;4.67;;;;;13.00;26.11;102165.75;5075287;28;46186;-70
2022/04/03 10:56:27;;;;;;;;;2.33;2.33;;;;;13.15;26.06;102175.38;5063834;28;45442;-70
2022/04/03 10:58:55;;;;;;;;;2.33;2.33;;;;;13.23;25.56;102159.22;5065604;28;45546;-70
2022/04/03 11:01:26;;;;;;;;;4.33;4.33;;;;;13.27;25.88;102170.75;5067581;28;45432;-69
2022/04/03 11:03:59;;;;;;;;;2.33;2.33;;;;;12.80;25.31;102166.56;5066597;28;46298;-70
2022/04/03 11:06:30;;;;;;;;;2.00;2.00;;;;;13.40;25.74;102156.91;5073920;28;45441;-70
2022/04/03 11:09:28;;;;;;;;;3.00;3.00;;;;;13.76;25.87;102150.97;5067376;28;45424;-70
2022/04/03 11:11:56;;;;;;;;;2.00;0.33;;;;;14.00;25.29;102140.63;5067762;28;45505;-70
2022/04/03 11:14:47;;;;;;;;;4.00;4.00;;;;;14.43;25.38;102139.50;5064450;28;45333;-70
2022/04/03 11:17:13;;;;;;;;;5.67;4.00;;;;;14.30;23.27;102134.25;5071503;28;46008;-70
2022/04/03 11:19:43;;;;;;;;;3.00;3.00;;;;;13.84;23.99;102128.44;5072313;28;45466;-68